Time;durP1;ratioP1;P1;durP2;ratioP2;P2;SDS_P1;SDS_P2;PMS_P1;PMS_P2;Temp;Humidity;BMP_temperature;BMP_pressure;BME280_temperature;BME280_humidity;BME280_pressure;Samples;Min_cycle;Max_cycle;Signal;HPM_P1;HPM_P2
2022/08/28 00:00:19;;;;;;;5.40;3.60;;;16.60;99.90;;;;;;5114447;28;20195;-79
2022/08/28 00:02:46;;;;;;;4.97;3.13;;;16.60;99.90;;;;;;5117098;28;20175;-80
2022/08/28 00:05:14;;;;;;;3.17;2.87;;;16.60;99.90;;;;;;5115255;28;20179;-79
2022/08/28 00:07:41;;;;;;;4.90;3.00;;;16.60;99.90;;;;;;5116788;28;20531;-79
2022/08/28 00:10:09;;;;;;;4.40;3.40;;;16.60;99.90;;;;;;5116734;28;20198;-80
2022/08/28 00:12:36;;;;;;;5.00;3.47;;;16.60;99.90;;;;;;5116627;28;20242;-80
2022/08/28 00:15:05;;;;;;;5.10;3.50;;;16.60;99.90;;;;;;5118122;28;20179;-81
2022/08/28 00:17:31;;;;;;;5.10;4.50;;;16.60;99.90;;;;;;5117271;27;20200;-81
2022/08/28 00:19:57;;;;;;;4.93;4.17;;;16.70;99.90;;;;;;5118113;28;20195;-80
2022/08/28 00:22:23;;;;;;;7.20;5.13;;;;;;;;;;5115506;28;20510;-80
2022/08/28 00:24:48;;;;;;;5.70;4.93;;;16.60;99.90;;;;;;5116837;28;20255;-79
2022/08/28 00:30:28;;;;;;;4.33;3.80;;;16.70;99.90;;;;;;5054421;28;20227;-80
2022/08/28 00:32:57;;;;;;;3.73;3.20;;;16.60;99.90;;;;;;5055175;28;20185;-81
2022/08/28 00:35:23;;;;;;;4.13;3.13;;;16.60;99.90;;;;;;5089433;28;20262;-80
2022/08/28 00:37:49;;;;;;;3.77;2.90;;;16.50;99.90;;;;;;5116866;28;20210;-79
2022/08/28 00:40:17;;;;;;;3.80;3.30;;;16.60;99.90;;;;;;5117199;28;20234;-80
2022/08/28 00:42:47;;;;;;;3.37;3.03;;;16.60;99.90;;;;;;5119138;28;20172;-81
2022/08/28 00:45:15;;;;;;;3.50;2.67;;;16.50;99.90;;;;;;5119753;28;20163;-82
2022/08/28 00:47:41;;;;;;;4.23;3.50;;;16.60;99.90;;;;;;5118503;28;20183;-81
2022/08/28 00:50:09;;;;;;;4.57;3.67;;;16.60;99.90;;;;;;5122495;28;20184;-80
2022/08/28 00:52:36;;;;;;;3.97;3.53;;;16.60;99.90;;;;;;5121880;28;20195;-80
2022/08/28 00:55:10;;;;;;;3.90;3.50;;;16.50;99.90;;;;;;5115776;28;20176;-79
2022/08/28 00:57:43;;;;;;;5.53;3.70;;;16.60;99.90;;;;;;5113472;28;20171;-80
2022/08/28 01:00:17;;;;;;;3.60;3.27;;;16.50;99.90;;;;;;5114388;28;20240;-79
2022/08/28 01:02:43;;;;;;;5.03;3.43;;;16.60;99.90;;;;;;5114399;28;20175;-79
2022/08/28 01:05:09;;;;;;;5.37;3.90;;;16.50;99.90;;;;;;5114529;28;20518;-80
2022/08/28 01:07:36;;;;;;;4.67;3.67;;;16.70;99.90;;;;;;5114987;28;20172;-80
2022/08/28 01:10:07;;;;;;;3.83;3.43;;;16.60;99.90;;;;;;5114868;28;20195;-80
2022/08/28 01:12:34;;;;;;;4.53;3.73;;;16.50;99.90;;;;;;5118825;28;20195;-79
2022/08/28 01:15:08;;;;;;;4.37;3.70;;;16.60;99.90;;;;;;5119673;27;20170;-79
2022/08/28 01:17:34;;;;;;;4.17;3.10;;;16.20;99.90;;;;;;5119340;28;20182;-78
2022/08/28 01:20:08;;;;;;;3.97;3.00;;;16.50;99.90;;;;;;5118243;28;20199;-79
2022/08/28 01:22:39;;;;;;;3.60;3.30;;;16.50;99.90;;;;;;5118240;28;20171;-78
2022/08/28 01:25:10;;;;;;;3.53;3.10;;;16.40;99.90;;;;;;5119634;28;20168;-81
2022/08/28 01:27:36;;;;;;;3.83;3.33;;;16.60;99.90;;;;;;5116262;28;20186;-80
2022/08/28 01:30:01;;;;;;;4.67;3.70;;;16.60;99.90;;;;;;5117212;28;20195;-80
2022/08/28 01:32:36;;;;;;;5.93;4.53;;;16.70;99.90;;;;;;5117898;28;20242;-81
2022/08/28 01:35:05;;;;;;;6.43;4.23;;;16.60;99.90;;;;;;5118671;28;20573;-80
2022/08/28 01:37:30;;;;;;;6.03;5.23;;;16.60;99.90;;;;;;5117790;28;20167;-79
2022/08/28 01:39:57;;;;;;;6.87;5.80;;;16.80;99.90;;;;;;5117431;28;20191;-81
2022/08/28 01:42:23;;;;;;;8.17;6.10;;;16.50;99.90;;;;;;5117996;28;20171;-80
2022/08/28 01:44:51;;;;;;;8.17;6.70;;;16.60;99.90;;;;;;5118304;28;20172;-80
2022/08/28 01:47:17;;;;;;;7.30;6.17;;;16.30;99.90;;;;;;5117406;28;20682;-78
2022/08/28 01:49:43;;;;;;;6.63;5.87;;;;;;;;;;5117488;28;20271;-80
2022/08/28 01:52:09;;;;;;;7.53;5.60;;;16.50;99.90;;;;;;5117323;28;20203;-79
2022/08/28 01:54:35;;;;;;;11.93;6.50;;;16.90;99.90;;;;;;5117229;28;20568;-79
2022/08/28 01:57:00;;;;;;;7.23;6.07;;;16.60;99.90;;;;;;5118715;28;20168;-79
2022/08/28 01:59:26;;;;;;;8.63;6.47;;;16.70;99.90;;;;;;5118029;28;20191;-79
2022/08/28 02:01:53;;;;;;;7.47;6.40;;;16.40;99.90;;;;;;5117349;28;20527;-79
2022/08/28 02:04:19;;;;;;;6.83;5.93;;;16.70;99.90;;;;;;5117165;28;20176;-79
2022/08/28 02:06:45;;;;;;;8.10;6.83;;;;;;;;;;5117208;28;20175;-78
2022/08/28 02:09:11;;;;;;;9.00;6.60;;;16.50;99.90;;;;;;5115535;28;20729;-79
2022/08/28 02:11:40;;;;;;;8.27;6.83;;;16.50;99.90;;;;;;5116833;28;20195;-80
2022/08/28 02:14:05;;;;;;;8.17;7.13;;;16.60;99.90;;;;;;5116775;28;20164;-80
2022/08/28 02:16:31;;;;;;;7.73;6.90;;;16.60;99.90;;;;;;5117149;28;20167;-80
2022/08/28 02:18:57;;;;;;;7.93;6.70;;;16.40;99.90;;;;;;5117215;28;20195;-79
2022/08/28 02:21:24;;;;;;;7.80;7.00;;;16.50;99.90;;;;;;5117645;28;20216;-79
2022/08/28 02:23:49;;;;;;;8.07;7.00;;;16.60;99.90;;;;;;5115665;28;20180;-78
2022/08/28 02:26:15;;;;;;;8.77;6.93;;;;;;;;;;5117024;28;20595;-81
2022/08/28 02:28:42;;;;;;;9.10;6.97;;;16.40;99.90;;;;;;5116920;28;20218;-80
2022/08/28 02:31:08;;;;;;;7.17;6.40;;;16.50;99.90;;;;;;5116398;28;20192;-80
2022/08/28 02:33:43;;;;;;;7.53;6.73;;;16.20;99.90;;;;;;5114934;28;20254;-81
2022/08/28 02:36:11;;;;;;;7.17;6.47;;;16.30;99.90;;;;;;5114872;28;20632;-79
2022/08/28 02:38:37;;;;;;;9.33;6.90;;;16.40;99.90;;;;;;5116395;28;20164;-80
2022/08/28 02:41:04;;;;;;;8.43;6.90;;;16.40;99.90;;;;;;5116678;28;20251;-79
2022/08/28 02:43:30;;;;;;;7.90;7.10;;;16.20;99.90;;;;;;5116915;28;20176;-79
2022/08/28 02:45:57;;;;;;;7.73;6.57;;;16.10;99.90;;;;;;5116675;28;20171;-79
2022/08/28 02:48:26;;;;;;;7.10;6.10;;;16.00;99.90;;;;;;5116869;28;20175;-81
2022/08/28 02:50:57;;;;;;;9.80;6.50;;;16.20;99.90;;;;;;5115328;28;20203;-79
2022/08/28 02:53:22;;;;;;;7.73;6.77;;;16.00;99.90;;;;;;5116838;28;20563;-80
2022/08/28 02:55:49;;;;;;;7.60;6.10;;;;;;;;;;5115039;28;20653;-80
2022/08/28 02:58:15;;;;;;;7.40;5.97;;;16.20;99.90;;;;;;5115126;28;20168;-79
2022/08/28 03:00:41;;;;;;;6.10;5.50;;;;;;;;;;5115760;28;20199;-80
2022/08/28 03:03:07;;;;;;;8.97;5.40;;;16.50;99.90;;;;;;5117172;28;20167;-80
2022/08/28 03:05:33;;;;;;;6.57;5.73;;;16.20;99.90;;;;;;5117266;28;20168;-81
2022/08/28 03:07:58;;;;;;;6.33;5.43;;;16.30;99.90;;;;;;5115502;28;20167;-82
2022/08/28 03:10:24;;;;;;;6.30;5.70;;;;;;;;;;5116914;28;20262;-79
2022/08/28 03:12:51;;;;;;;6.30;5.50;;;16.50;99.90;;;;;;5116697;28;20204;-81
2022/08/28 03:15:17;;;;;;;7.00;5.83;;;16.30;99.90;;;;;;5117160;28;20248;-81
2022/08/28 03:17:43;;;;;;;9.50;5.50;;;;;;;;;;5116577;28;20637;-79
2022/08/28 03:20:10;;;;;;;7.07;5.83;;;16.00;99.90;;;;;;5116762;28;20193;-79
2022/08/28 03:25:23;;;;;;;6.57;5.77;;;16.00;99.90;;;;;;5116943;28;20179;-80
2022/08/28 03:27:49;;;;;;;8.83;6.73;;;16.10;99.90;;;;;;5115198;28;20175;-80
2022/08/28 03:30:16;;;;;;;9.93;5.77;;;14.50;99.90;;;;;;5116494;28;20191;-80
2022/08/28 03:32:41;;;;;;;6.57;5.87;;;15.90;99.90;;;;;;5116732;28;20222;-80
2022/08/28 03:35:08;;;;;;;7.07;6.07;;;16.30;99.90;;;;;;5115027;28;20621;-80
2022/08/28 03:37:34;;;;;;;7.70;6.10;;;16.30;99.90;;;;;;5115666;28;20178;-79
2022/08/28 03:40:00;;;;;;;6.30;5.70;;;16.40;99.90;;;;;;5117426;28;20195;-79
2022/08/28 03:42:26;;;;;;;6.47;5.87;;;;;;;;;;5117650;28;20224;-79
2022/08/28 03:44:53;;;;;;;7.50;6.50;;;16.40;99.90;;;;;;5117039;28;20536;-79
2022/08/28 03:47:19;;;;;;;7.67;6.17;;;16.20;99.90;;;;;;5118051;28;20186;-79
2022/08/28 03:49:45;;;;;;;6.87;6.17;;;;;;;;;;5118911;28;20191;-80
2022/08/28 03:52:11;;;;;;;7.80;6.20;;;16.20;99.90;;;;;;5117902;28;20544;-80
2022/08/28 03:54:37;;;;;;;7.30;6.50;;;16.10;99.90;;;;;;5119388;28;20167;-81
2022/08/28 03:57:03;;;;;;;6.87;6.10;;;15.80;99.90;;;;;;5120615;28;20178;-81
2022/08/28 03:59:29;;;;;;;6.97;6.20;;;;;;;;;;5119704;28;20213;-81
2022/08/28 04:01:54;;;;;;;6.83;5.83;;;16.10;99.90;;;;;;5122900;28;20175;-80
2022/08/28 04:04:20;;;;;;;6.27;5.40;;;;;;;;;;5119794;28;20183;-78
2022/08/28 04:06:46;;;;;;;11.47;6.80;;;16.00;99.90;;;;;;5115112;28;20277;-81
2022/08/28 04:09:12;;;;;;;7.13;5.90;;;16.40;99.90;;;;;;5113162;28;20237;-78
2022/08/28 04:11:42;;;;;;;7.87;6.70;;;16.10;99.90;;;;;;5115560;28;20195;-79
2022/08/28 04:14:10;;;;;;;8.73;5.63;;;16.00;99.90;;;;;;5114702;28;20183;-80
2022/08/28 04:16:35;;;;;;;6.50;5.83;;;16.20;99.90;;;;;;5114560;28;20258;-80
2022/08/28 04:19:01;;;;;;;6.73;5.90;;;;;;;;;;5113742;28;20199;-79
2022/08/28 04:21:27;;;;;;;7.53;5.93;;;16.30;99.90;;;;;;5115119;28;20187;-79
2022/08/28 04:23:53;;;;;;;7.30;5.60;;;16.20;99.90;;;;;;5114781;28;20180;-81
2022/08/28 04:26:22;;;;;;;6.80;5.97;;;16.10;99.90;;;;;;5113618;28;20218;-79
2022/08/28 04:28:48;;;;;;;7.07;6.37;;;15.90;99.90;;;;;;5114315;28;20255;-79
2022/08/28 04:31:15;;;;;;;8.20;6.23;;;16.00;99.90;;;;;;5114995;28;20199;-79
2022/08/28 04:33:41;;;;;;;6.80;6.10;;;16.10;99.90;;;;;;5114794;28;20172;-80
2022/08/28 04:36:13;;;;;;;8.40;5.93;;;16.10;99.90;;;;;;5114603;28;20172;-80
2022/08/28 04:38:41;;;;;;;6.63;5.97;;;16.10;99.90;;;;;;5115203;28;20171;-79
2022/08/28 04:41:08;;;;;;;7.37;5.73;;;16.10;99.90;;;;;;5115300;28;20171;-79
2022/08/28 04:43:35;;;;;;;7.13;6.43;;;16.10;99.90;;;;;;5115319;28;20178;-80
2022/08/28 04:46:10;;;;;;;7.57;6.87;;;16.10;99.90;;;;;;5114852;28;20180;-80
2022/08/28 04:48:36;;;;;;;7.93;6.60;;;16.40;99.90;;;;;;5117294;28;20175;-80
2022/08/28 04:51:05;;;;;;;8.67;6.67;;;16.20;99.90;;;;;;5117639;28;20344;-80
2022/08/28 04:53:31;;;;;;;7.00;6.30;;;16.10;99.90;;;;;;5119198;27;20300;-80
2022/08/28 04:55:59;;;;;;;7.50;6.50;;;16.10;99.90;;;;;;5118521;28;20205;-79
2022/08/28 04:58:29;;;;;;;9.83;5.93;;;16.20;99.90;;;;;;5116591;28;20175;-79
2022/08/28 05:00:55;;;;;;;8.83;6.47;;;16.20;99.90;;;;;;5118012;28;20195;-79
2022/08/28 05:03:21;;;;;;;8.03;6.70;;;16.20;99.90;;;;;;5118445;28;20228;-78
2022/08/28 05:05:50;;;;;;;7.53;6.77;;;16.20;99.90;;;;;;5116779;28;20179;-79
2022/08/28 05:08:19;;;;;;;8.30;6.87;;;16.30;99.90;;;;;;5117859;28;20720;-80
2022/08/28 05:10:48;;;;;;;7.33;5.87;;;16.30;99.90;;;;;;5117879;28;20219;-80
2022/08/28 05:13:15;;;;;;;7.00;6.30;;;16.30;99.90;;;;;;5118090;28;20175;-79
2022/08/28 05:15:43;;;;;;;7.83;6.67;;;16.30;99.90;;;;;;5116534;28;20187;-79
2022/08/28 05:18:09;;;;;;;7.23;6.23;;;16.30;99.90;;;;;;5116331;28;20175;-79
2022/08/28 05:20:37;;;;;;;7.93;6.97;;;16.50;99.90;;;;;;5117844;28;20195;-80
2022/08/28 05:23:04;;;;;;;7.97;6.53;;;16.40;99.90;;;;;;5116914;28;20183;-81
2022/08/28 05:25:37;;;;;;;9.20;6.50;;;16.40;99.90;;;;;;5116908;28;20185;-81
2022/08/28 05:28:04;;;;;;;8.53;7.03;;;16.40;99.90;;;;;;5116902;28;20224;-79
2022/08/28 05:30:31;;;;;;;8.40;6.60;;;16.20;99.90;;;;;;5116772;28;20214;-80
2022/08/28 05:32:58;;;;;;;7.93;6.57;;;16.40;99.90;;;;;;5116580;28;20306;-79
2022/08/28 05:35:23;;;;;;;8.10;6.10;;;16.40;99.90;;;;;;5117692;28;20178;-79
2022/08/28 05:37:51;;;;;;;11.50;8.43;;;16.40;99.90;;;;;;5116171;28;20180;-80
2022/08/28 05:40:19;;;;;;;12.20;8.20;;;16.40;99.90;;;;;;5117421;28;20188;-80
2022/08/28 05:42:45;;;;;;;9.57;8.63;;;16.30;99.90;;;;;;5117387;28;20283;-80
2022/08/28 05:45:10;;;;;;;10.93;9.00;;;16.30;99.90;;;;;;5118105;28;20207;-81
2022/08/28 05:47:37;;;;;;;10.10;8.30;;;16.30;99.90;;;;;;5117759;28;20239;-81
2022/08/28 05:50:03;;;;;;;10.47;8.37;;;16.30;99.90;;;;;;5118291;28;20195;-79
2022/08/28 05:52:29;;;;;;;10.53;8.43;;;16.30;99.90;;;;;;5116471;28;20210;-80
2022/08/28 05:54:55;;;;;;;10.53;8.40;;;16.40;99.90;;;;;;5117720;28;20187;-81
2022/08/28 05:57:21;;;;;;;11.53;9.27;;;;;;;;;;5117457;27;20221;-81
2022/08/28 05:59:46;;;;;;;9.17;8.10;;;16.10;99.90;;;;;;5118274;28;20617;-81
2022/08/28 06:02:12;;;;;;;12.20;9.23;;;16.60;99.90;;;;;;5118521;28;20198;-79
2022/08/28 06:04:39;;;;;;;9.90;8.87;;;16.40;99.90;;;;;;5116738;28;20184;-79
2022/08/28 06:07:05;;;;;;;10.67;9.47;;;16.60;99.90;;;;;;5116849;28;20190;-79
2022/08/28 06:09:31;;;;;;;10.90;9.77;;;16.30;99.90;;;;;;5116219;28;20261;-80
2022/08/28 06:11:59;;;;;;;12.30;10.87;;;16.30;99.90;;;;;;5118382;28;20207;-79
2022/08/28 06:14:26;;;;;;;13.70;10.43;;;16.30;99.90;;;;;;5118232;28;20625;-79
2022/08/28 06:16:54;;;;;;;12.77;11.30;;;16.40;99.90;;;;;;5118165;27;20320;-79
2022/08/28 06:19:21;;;;;;;14.93;10.53;;;16.40;99.90;;;;;;5118242;28;20191;-79
2022/08/28 06:34:39;;;;;;;15.20;12.13;;;16.50;99.90;;;;;;5135093;27;20281;-79
2022/08/28 06:37:04;;;;;;;15.03;12.53;;;16.60;99.90;;;;;;5116044;28;20269;-80
2022/08/28 06:39:30;;;;;;;13.50;12.10;;;16.70;99.90;;;;;;5135087;28;20726;-80
2022/08/28 06:41:56;;;;;;;14.90;10.97;;;16.70;99.90;;;;;;5135227;27;20175;-81
2022/08/28 06:44:22;;;;;;;16.57;11.03;;;;;;;;;;5134844;27;20644;-81
2022/08/28 06:46:50;;;;;;;11.97;10.77;;;16.60;99.90;;;;;;5134903;28;20201;-81
2022/08/28 06:49:15;;;;;;;12.57;11.27;;;16.60;99.90;;;;;;5135005;27;20198;-80
2022/08/28 06:57:04;;;;;;;12.13;9.77;;;16.70;99.90;;;;;;5133925;27;20281;-81
2022/08/28 06:59:30;;;;;;;11.10;9.93;;;16.70;99.90;;;;;;5133223;28;20281;-81
2022/08/28 07:01:56;;;;;;;11.37;9.57;;;;;;;;;;5133290;27;20167;-79
2022/08/28 07:04:21;;;;;;;11.97;10.03;;;16.90;99.90;;;;;;5136412;28;20173;-80
2022/08/28 07:06:49;;;;;;;11.87;10.03;;;;;;;;;;5137062;28;20178;-79
2022/08/28 07:09:15;;;;;;;10.50;9.43;;;16.90;99.90;;;;;;5134591;27;20202;-80
2022/08/28 07:11:45;;;;;;;10.53;9.43;;;17.20;99.90;;;;;;5132995;27;20167;-80
2022/08/28 07:14:11;;;;;;;9.37;8.23;;;17.00;99.90;;;;;;5131618;28;20537;-79
2022/08/28 07:16:37;;;;;;;10.63;8.10;;;17.00;99.90;;;;;;5132784;27;20203;-81
2022/08/28 07:19:04;;;;;;;9.33;7.97;;;16.90;99.90;;;;;;5132544;27;20201;-79
2022/08/28 07:21:32;;;;;;;8.87;7.97;;;17.00;99.90;;;;;;5133554;27;20210;-80
2022/08/28 07:23:58;;;;;;;8.20;7.00;;;17.20;99.90;;;;;;5134371;27;20234;-82
2022/08/28 07:26:25;;;;;;;7.20;6.50;;;;;;;;;;5133640;27;20181;-80
2022/08/28 07:28:53;;;;;;;6.27;5.47;;;17.60;99.90;;;;;;5132486;27;20260;-79
2022/08/28 07:31:24;;;;;;;6.30;5.70;;;17.30;99.90;;;;;;5132806;27;20168;-81
2022/08/28 07:33:51;;;;;;;6.87;5.70;;;17.40;99.90;;;;;;5132197;27;20590;-81
2022/08/28 07:36:21;;;;;;;6.53;5.83;;;17.40;99.90;;;;;;5133259;27;20658;-79
2022/08/28 07:38:47;;;;;;;5.73;5.13;;;17.70;99.90;;;;;;5132306;27;20176;-80
2022/08/28 07:41:22;;;;;;;6.23;5.63;;;17.80;99.90;;;;;;5131553;28;20184;-79
2022/08/28 07:46:35;;;;;;;9.27;5.37;;;17.90;99.90;;;;;;5133165;28;20655;-81
2022/08/28 07:49:01;;;;;;;5.77;5.27;;;17.50;99.90;;;;;;5133884;27;20201;-80
2022/08/28 07:51:27;;;;;;;5.97;5.07;;;18.00;99.90;;;;;;5133132;27;20202;-80
2022/08/28 07:53:56;;;;;;;5.27;4.77;;;17.80;99.90;;;;;;5131019;28;20186;-80
2022/08/28 07:56:23;;;;;;;6.20;4.87;;;18.00;99.90;;;;;;5131014;28;20293;-79
2022/08/28 07:58:48;;;;;;;5.20;4.20;;;17.90;99.90;;;;;;5132286;28;20186;-84
2022/08/28 08:01:16;;;;;;;4.80;4.27;;;18.20;99.90;;;;;;5132708;28;20172;-80
2022/08/28 08:03:42;;;;;;;4.60;4.20;;;18.20;99.90;;;;;;5132627;27;20174;-82
2022/08/28 08:06:09;;;;;;;4.90;4.50;;;18.50;99.90;;;;;;5131015;28;20177;-81
2022/08/28 08:08:36;;;;;;;5.03;4.53;;;18.60;99.90;;;;;;5116467;28;20375;-81
2022/08/28 08:11:06;;;;;;;4.63;4.13;;;18.50;99.90;;;;;;5118921;28;20714;-81
2022/08/28 08:13:33;;;;;;;5.40;4.90;;;18.60;99.90;;;;;;5118816;28;20233;-81
2022/08/28 08:16:13;;;;;;;4.90;4.33;;;18.70;99.90;;;;;;5119127;28;20223;-80
2022/08/28 08:18:40;;;;;;;4.60;4.20;;;18.80;99.90;;;;;;5119222;28;20200;-79
2022/08/28 08:21:08;;;;;;;6.93;4.00;;;18.70;99.90;;;;;;5119220;28;20175;-80
2022/08/28 08:23:35;;;;;;;4.70;4.30;;;18.70;99.90;;;;;;5119048;28;20635;-80
2022/08/28 08:26:04;;;;;;;4.37;3.97;;;18.90;99.90;;;;;;5118680;28;20643;-79
2022/08/28 08:28:32;;;;;;;4.50;4.10;;;18.70;99.90;;;;;;5118494;28;20513;-81
2022/08/28 08:31:23;;;;;;;4.80;4.27;;;18.70;99.90;;;;;;5119017;28;20548;-81
2022/08/28 08:33:52;;;;;;;3.97;3.60;;;18.80;99.90;;;;;;5117155;28;20178;-80
2022/08/28 08:36:20;;;;;;;4.37;3.97;;;18.80;99.90;;;;;;5117840;28;20205;-80
2022/08/28 08:38:46;;;;;;;4.90;3.70;;;18.90;99.90;;;;;;5117204;28;20187;-81
2022/08/28 08:41:17;;;;;;;4.47;4.07;;;18.90;99.90;;;;;;5117627;28;20193;-81
2022/08/28 08:44:14;;;;;;;3.53;3.23;;;19.10;99.90;;;;;;5119102;28;20244;-80
2022/08/28 08:47:02;;;;;;;5.53;4.33;;;19.30;99.90;;;;;;5118833;28;20181;-79
2022/08/28 08:49:33;;;;;;;4.03;3.63;;;19.20;99.90;;;;;;5120529;28;20191;-83
2022/08/28 08:52:17;;;;;;;2.80;2.60;;;19.30;99.90;;;;;;5120545;28;20190;-82
2022/08/28 08:55:11;;;;;;;3.93;3.37;;;19.30;99.90;;;;;;5120560;28;20580;-84
2022/08/28 08:57:37;;;;;;;3.50;3.20;;;19.40;99.90;;;;;;5113633;28;20267;-82
2022/08/28 09:00:09;;;;;;;4.47;3.33;;;19.30;99.90;;;;;;5121866;28;20603;-82
2022/08/28 09:02:46;;;;;;;4.03;3.50;;;19.40;99.90;;;;;;5122594;28;20188;-85
2022/08/28 09:05:17;;;;;;;3.93;3.53;;;19.30;99.90;;;;;;5122514;28;20181;-82
2022/08/28 09:07:56;;;;;;;3.30;3.00;;;19.30;99.90;;;;;;5121494;28;20182;-82
2022/08/28 09:10:24;;;;;;;3.77;3.47;;;18.90;99.90;;;;;;5122322;28;20213;-83
2022/08/28 09:13:08;;;;;;;4.50;4.10;;;19.10;99.90;;;;;;5120323;28;20280;-82
2022/08/28 09:15:45;;;;;;;4.67;4.27;;;19.10;99.90;;;;;;5119026;28;20268;-84
2022/08/28 09:18:26;;;;;;;4.37;3.97;;;19.00;99.90;;;;;;5119714;28;20245;-82
2022/08/28 09:20:55;;;;;;;4.87;3.90;;;19.00;99.90;;;;;;5119846;28;20209;-82
2022/08/28 09:23:22;;;;;;;4.93;3.90;;;18.90;99.90;;;;;;5120601;28;20173;-84
2022/08/28 09:26:07;;;;;;;4.50;4.10;;;18.80;99.90;;;;;;5120314;28;20188;-82
2022/08/28 09:28:37;;;;;;;4.43;4.00;;;18.80;99.90;;;;;;5120408;27;20170;-83
2022/08/28 09:31:12;;;;;;;4.10;3.70;;;18.50;99.90;;;;;;5119426;28;20192;-82
2022/08/28 09:33:48;;;;;;;4.27;3.83;;;18.60;99.90;;;;;;5118444;28;20668;-82
2022/08/28 09:36:33;;;;;;;5.10;4.60;;;18.70;99.90;;;;;;5118802;28;20241;-83
2022/08/28 09:39:20;;;;;;;4.80;4.20;;;18.80;99.90;;;;;;5118543;28;20674;-83
2022/08/28 09:44:59;;;;;;;4.33;3.53;;;19.30;99.90;;;;;;5120920;28;20232;-83
2022/08/28 09:47:57;;;;;;;6.80;3.63;;;19.10;99.90;;;;;;5120266;28;20183;-83
2022/08/28 09:50:29;;;;;;;4.70;3.80;;;19.30;99.90;;;;;;5120990;28;20528;-83
2022/08/28 09:53:07;;;;;;;4.90;3.53;;;19.10;99.90;;;;;;5120741;28;20169;-83
2022/08/28 09:55:52;;;;;;;3.57;3.27;;;19.80;99.90;;;;;;5119393;28;20256;-82
2022/08/28 09:58:18;;;;;;;3.87;3.50;;;19.70;99.90;;;;;;5121408;28;20224;-84
2022/08/28 10:00:54;;;;;;;3.90;3.23;;;19.50;99.90;;;;;;5119599;28;20202;-82
2022/08/28 10:03:58;;;;;;;3.90;3.60;;;19.90;99.90;;;;;;5121354;28;20237;-81
2022/08/28 10:06:28;;;;;;;3.40;3.10;;;19.70;99.90;;;;;;5079044;28;20324;-82
2022/08/28 10:09:09;;;;;;;2.67;2.47;;;19.90;99.90;;;;;;5115870;28;20551;-83
2022/08/28 10:11:38;;;;;;;3.20;2.87;;;19.80;99.90;;;;;;5121253;28;20181;-83
2022/08/28 10:14:21;;;;;;;2.47;2.27;;;20.10;99.90;;;;;;5116249;28;20182;-82
2022/08/28 10:16:59;;;;;;;3.07;2.70;;;20.40;99.90;;;;;;5118172;28;20206;-83
2022/08/28 10:19:34;;;;;;;2.50;2.30;;;20.30;99.90;;;;;;5118619;28;20201;-84
2022/08/28 10:22:22;;;;;;;2.57;2.30;;;20.40;99.90;;;;;;5117503;28;20177;-82
2022/08/28 10:24:53;;;;;;;2.47;2.27;;;20.20;99.90;;;;;;5118283;28;20177;-83
2022/08/28 10:27:39;;;;;;;2.13;1.70;;;20.10;99.90;;;;;;5118765;28;20543;-85
2022/08/28 10:30:07;;;;;;;2.43;1.90;;;19.90;99.90;;;;;;5120640;28;20194;-83
2022/08/28 10:32:44;;;;;;;2.03;1.93;;;19.80;99.90;;;;;;5121753;28;20201;-80
2022/08/28 10:35:26;;;;;;;1.93;1.83;;;19.70;99.90;;;;;;5118402;28;20630;-84
2022/08/28 10:38:12;;;;;;;2.20;2.00;;;19.60;99.90;;;;;;5117963;28;20169;-82
2022/08/28 10:40:58;;;;;;;2.10;1.83;;;19.60;99.90;;;;;;5117765;28;20284;-83
2022/08/28 10:43:42;;;;;;;2.03;1.83;;;19.80;99.90;;;;;;5120964;28;20161;-83
2022/08/28 10:46:37;;;;;;;2.10;2.00;;;19.70;99.90;;;;;;5122453;28;20577;-82
2022/08/28 10:49:15;;;;;;;3.13;1.93;;;20.00;99.90;;;;;;5117665;28;20215;-85
2022/08/28 10:51:51;;;;;;;3.60;1.90;;;20.10;99.90;;;;;;5120114;28;20219;-84
2022/08/28 10:54:53;;;;;;;2.30;2.10;;;20.10;99.90;;;;;;5122992;28;20192;-85
2022/08/28 10:57:47;;;;;;;2.20;2.00;;;20.20;99.90;;;;;;5117810;28;20189;-82
2022/08/28 11:00:17;;;;;;;2.80;2.37;;;19.90;99.90;;;;;;5122864;28;20245;-82
2022/08/28 11:02:48;;;;;;;2.37;2.17;;;20.20;99.90;;;;;;5122276;28;20232;-84
2022/08/28 11:05:20;;;;;;;2.40;1.80;;;20.00;99.90;;;;;;5122676;28;20166;-83
2022/08/28 11:08:10;;;;;;;2.43;1.97;;;20.10;99.90;;;;;;5121032;28;20310;-83
2022/08/28 11:10:48;;;;;;;3.03;2.00;;;20.10;99.90;;;;;;5125202;28;20223;-84
2022/08/28 11:13:39;;;;;;;2.23;2.03;;;20.30;99.90;;;;;;5124659;28;20166;-83
2022/08/28 11:16:20;;;;;;;2.80;2.40;;;20.30;99.90;;;;;;5126514;28;20199;-86
2022/08/28 11:19:05;;;;;;;3.10;2.80;;;20.50;99.90;;;;;;5125409;28;20172;-85
2022/08/28 11:21:55;;;;;;;3.57;3.03;;;20.10;99.90;;;;;;5121408;28;20178;-85
2022/08/28 11:24:26;;;;;;;3.87;3.20;;;20.10;99.90;;;;;;5120005;28;20169;-83
2022/08/28 11:27:22;;;;;;;5.03;2.70;;;20.10;99.90;;;;;;5120909;28;20212;-84
2022/08/28 11:30:14;;;;;;;3.20;2.90;;;20.00;99.90;;;;;;5118050;28;20207;-84
2022/08/28 11:32:48;;;;;;;3.60;3.00;;;20.00;99.90;;;;;;5118499;28;20205;-82
2022/08/28 11:35:21;;;;;;;3.43;2.97;;;;;;;;;;5118950;28;20198;-81
2022/08/28 11:37:53;;;;;;;3.77;3.10;;;20.10;99.90;;;;;;5118762;28;20223;-83
2022/08/28 11:40:31;;;;;;;4.57;3.83;;;20.00;99.90;;;;;;5118659;28;20198;-82
2022/08/28 11:43:14;;;;;;;4.37;3.47;;;20.20;99.90;;;;;;5121729;28;20233;-82
2022/08/28 11:45:45;;;;;;;3.93;3.33;;;20.20;99.90;;;;;;5124161;28;20701;-83
2022/08/28 11:48:34;;;;;;;3.87;3.57;;;20.40;99.90;;;;;;5123250;28;20181;-84
2022/08/28 11:51:41;;;;;;;5.07;4.03;;;20.50;99.90;;;;;;5120748;28;20198;-82
2022/08/28 11:54:07;;;;;;;3.70;3.40;;;20.70;99.90;;;;;;5062134;28;20216;-81
2022/08/28 11:56:38;;;;;;;4.97;3.37;;;21.00;99.90;;;;;;5112446;28;20692;-82
2022/08/28 11:59:10;;;;;;;8.80;4.20;;;21.30;99.90;;;;;;5122497;28;20190;-82
2022/08/28 12:01:36;;;;;;;3.90;3.60;;;21.40;99.90;;;;;;5122983;28;20163;-81
2022/08/28 12:04:11;;;;;;;6.40;3.57;;;21.50;99.90;;;;;;5121152;28;20178;-82
2022/08/28 12:06:54;;;;;;;4.03;3.73;;;21.70;99.90;;;;;;5124358;28;20512;-82
2022/08/28 12:09:25;;;;;;;4.10;3.70;;;22.80;99.90;;;;;;5123407;28;20198;-83
2022/08/28 12:11:51;;;;;;;4.40;4.00;;;22.90;99.90;;;;;;5123607;28;20299;-82
2022/08/28 12:14:26;;;;;;;4.23;3.23;;;23.00;99.90;;;;;;5123877;28;20637;-83
2022/08/28 12:16:57;;;;;;;4.17;3.77;;;22.80;99.90;;;;;;5121495;28;20196;-82
2022/08/28 12:19:36;;;;;;;3.97;3.57;;;22.40;99.90;;;;;;5122976;28;20191;-81
2022/08/28 12:22:09;;;;;;;4.13;3.73;;;22.30;99.90;;;;;;5123882;28;20714;-80
2022/08/28 12:24:42;;;;;;;5.53;4.63;;;22.20;99.90;;;;;;5123048;28;20251;-81
2022/08/28 12:27:09;;;;;;;5.07;4.57;;;21.90;99.90;;;;;;5122065;28;20164;-79
2022/08/28 12:29:47;;;;;;;5.40;4.33;;;21.50;99.90;;;;;;5123676;28;20209;-81
2022/08/28 12:32:27;;;;;;;5.77;5.23;;;21.50;99.90;;;;;;5122598;28;20172;-80
2022/08/28 12:34:56;;;;;;;6.40;5.07;;;21.30;99.90;;;;;;5122682;28;20171;-80
2022/08/28 12:37:35;;;;;;;6.47;5.07;;;21.40;99.90;;;;;;5123454;28;20625;-80
2022/08/28 12:40:18;;;;;;;6.27;5.67;;;21.70;99.90;;;;;;5122127;28;20187;-82
2022/08/28 12:42:51;;;;;;;7.13;5.60;;;22.10;99.90;;;;;;5124448;28;20172;-81
2022/08/28 12:45:26;;;;;;;6.10;5.50;;;22.70;99.90;;;;;;5124656;28;20160;-82
2022/08/28 12:47:58;;;;;;;6.00;5.33;;;23.20;99.90;;;;;;5123530;28;20165;-82
2022/08/28 12:50:35;;;;;;;5.63;5.07;;;23.60;99.90;;;;;;5123429;28;20703;-81
2022/08/28 12:53:04;;;;;;;5.57;4.93;;;23.80;99.90;;;;;;5123670;28;20234;-83
2022/08/28 12:55:30;;;;;;;5.57;5.07;;;23.80;99.90;;;;;;5126389;28;20203;-82
2022/08/28 12:57:56;;;;;;;6.17;5.57;;;23.60;99.90;;;;;;5137632;28;20199;-81
2022/08/28 13:00:25;;;;;;;5.23;4.73;;;23.40;99.90;;;;;;5140528;28;20176;-82
2022/08/28 13:02:54;;;;;;;5.00;4.50;;;23.30;99.90;;;;;;5138724;28;20666;-83
2022/08/28 13:05:28;;;;;;;5.67;5.07;;;23.20;99.90;;;;;;5137948;28;20186;-82
2022/08/28 13:07:55;;;;;;;6.33;4.43;;;23.30;99.90;;;;;;5130518;28;20177;-80
2022/08/28 13:10:30;;;;;;;4.83;4.43;;;23.40;99.90;;;;;;5136897;28;20270;-79
2022/08/28 13:13:09;;;;;;;5.60;4.80;;;23.50;99.90;;;;;;5140127;28;20202;-80
2022/08/28 13:15:48;;;;;;;5.93;4.33;;;23.60;99.90;;;;;;5130724;28;20284;-82
2022/08/28 13:18:32;;;;;;;5.57;5.03;;;23.60;99.90;;;;;;5119127;28;20537;-81
2022/08/28 13:21:16;;;;;;;5.23;4.73;;;23.70;99.90;;;;;;5119488;28;20188;-82
2022/08/28 13:23:42;;;;;;;7.00;4.20;;;;;;;;;;5135056;28;20178;-88
2022/08/28 13:26:09;;;;;;;5.37;3.83;;;23.70;99.90;;;;;;5124823;28;20190;-84
2022/08/28 13:28:41;;;;;;;4.50;4.07;;;23.50;99.90;;;;;;5119402;28;20281;-81
2022/08/28 13:31:39;;;;;;;5.87;5.27;;;23.50;99.90;;;;;;5122172;28;20201;-85
2022/08/28 13:34:25;;;;;;;5.00;4.50;;;23.40;99.90;;;;;;5095683;28;20194;-84
2022/08/28 13:36:54;;;;;;;5.27;4.30;;;23.20;99.90;;;;;;5121245;27;20225;-85
2022/08/28 13:39:21;;;;;;;5.30;4.47;;;23.90;99.90;;;;;;5125090;28;20208;-82
2022/08/28 13:41:55;;;;;;;5.93;4.43;;;24.30;99.90;;;;;;5117653;28;20183;-84